Capitol Logistics 3268


KMIA
Miami International Airport
Miami, Florida, US
KDAB
Daytona Beach International Airport
Daytona Beach, Florida, US

Activity Log

Date Flight Route Aircraft Duration
01/03/2020 CPX3268 KMIA HEDLY2 HEDLY V437 MLB V3 SMYRA KDAB SF34 1h 00m
11/04/2019 CPX668 PIONN V437 MLB V3 OAKIE SF34 1h 06m

Route Details

Aircraft Information
Primary: Saab 340AF
Backup: Not Available
Route Data
Distance: 207nm
Sched. Duration: 1h 35m
Avg. Duration: 1h 03m (-32m)
Times Flown: 2
Recm'd Route: PIONN V437 MLB V3 OAKIE
Planned Altitude: 16,000ft
Origin Wx: KMIA 051553Z 14014G18KT 10SM BKN018 BKN070 BKN130 BKN250 30/26 A3004 RMK AO2 SLP172 CB DSNT SE-SW MOV NW T03000261
Dest. Wx: KDAB 051553Z 21006KT 10SM FEW020 FEW100 OVC150 28/23 A3008 RMK AO2 SLP185 T02780228
Notes:

Financial History
Total Freight: 5,610lbs
Average Load: 2,805lbs/flt
Fuel Used: 1,987lbs
Avg. Fuel Used: 994lbs/flt
Fuel Expense: $2,444
Avg. Fuel Expense: $1,222
Avg. Fuel Cost: $1.23/lbs
Total Gross Income: $6,582
Pilot Pay: $458
Total Expenses: $815
Total Revenue: $2,810
Average Revenue: $3,291.20